createdAt,value
2023-01-01T00:00:33.822Z,17.25
2023-01-01T00:01:33.788Z,17.30
2023-01-01T00:02:36.987Z,17.12
2023-01-01T00:03:33.746Z,17.03
2023-01-01T00:04:33.736Z,16.99
2023-01-01T00:05:33.718Z,17.03
2023-01-01T00:06:33.662Z,17.07
2023-01-01T00:07:33.672Z,17.10
2023-01-01T00:08:33.652Z,17.35
2023-01-01T00:09:33.654Z,17.24
2023-01-01T00:10:33.654Z,17.27
2023-01-01T00:11:33.635Z,17.30
2023-01-01T00:12:33.665Z,17.27
2023-01-01T00:13:33.601Z,17.12
2023-01-01T00:14:33.587Z,17.14
2023-01-01T00:15:33.581Z,17.00
2023-01-01T00:16:33.587Z,16.95
2023-01-01T00:17:33.562Z,16.78
2023-01-01T00:18:33.523Z,16.72
2023-01-01T00:19:33.519Z,16.80
2023-01-01T00:20:35.545Z,16.80
2023-01-01T00:21:33.515Z,16.78
2023-01-01T00:23:34.496Z,16.73
2023-01-01T00:24:33.461Z,16.69
2023-01-01T00:25:33.483Z,16.47
2023-01-01T00:26:35.469Z,16.57
2023-01-01T00:27:33.443Z,16.52
2023-01-01T00:28:33.413Z,16.42
2023-01-01T00:29:33.425Z,16.32
2023-01-01T00:30:33.433Z,16.27
2023-01-01T00:31:33.469Z,16.22
2023-01-01T00:32:33.421Z,16.14
2023-01-01T00:33:33.490Z,16.16
2023-01-01T00:34:33.346Z,16.14
2023-01-01T00:35:33.337Z,16.08
2023-01-01T00:36:33.375Z,16.10
2023-01-01T00:37:33.327Z,16.10
2023-01-01T00:38:33.326Z,15.96
2023-01-01T00:39:33.404Z,16.01
2023-01-01T00:40:33.336Z,16.03
2023-01-01T00:41:33.282Z,15.99
2023-01-01T00:42:33.305Z,15.93
2023-01-01T00:43:33.269Z,15.99
2023-01-01T00:44:33.250Z,15.89
2023-01-01T00:45:33.351Z,15.91
2023-01-01T00:46:33.249Z,15.91
2023-01-01T00:47:33.228Z,15.81
2023-01-01T00:48:33.362Z,15.77
2023-01-01T00:49:33.280Z,15.78
2023-01-01T00:50:33.210Z,15.88
2023-01-01T00:51:37.176Z,15.77
2023-01-01T00:52:33.166Z,15.80
2023-01-01T00:53:33.251Z,15.66
2023-01-01T00:54:33.183Z,15.56
2023-01-01T00:55:33.163Z,15.40
2023-01-01T00:56:33.108Z,15.28
2023-01-01T00:57:33.123Z,15.22
2023-01-01T00:58:33.098Z,15.11
2023-01-01T00:59:33.128Z,15.07
2023-01-01T01:00:33.084Z,15.07
2023-01-01T01:01:33.139Z,14.91
2023-01-01T01:02:33.237Z,14.79
2023-01-01T01:03:33.068Z,14.74
2023-01-01T01:04:33.045Z,14.61
2023-01-01T01:05:33.051Z,14.57
2023-01-01T01:06:33.019Z,14.45
2023-01-01T01:07:33.007Z,14.48
2023-01-01T01:08:32.988Z,14.38
2023-01-01T01:09:32.997Z,14.29
2023-01-01T01:10:33.047Z,14.21
2023-01-01T01:11:32.968Z,13.99
2023-01-01T01:12:32.989Z,13.84
2023-01-01T01:13:32.941Z,13.76
2023-01-01T01:14:32.929Z,13.54
2023-01-01T01:15:32.950Z,13.66
2023-01-01T01:16:33.103Z,13.57
2023-01-01T01:17:32.909Z,13.41
2023-01-01T01:18:32.886Z,13.29
2023-01-01T01:19:32.871Z,13.21
2023-01-01T01:20:32.894Z,13.07
2023-01-01T01:21:32.862Z,13.28
2023-01-01T01:22:32.848Z,13.48
2023-01-01T01:23:32.829Z,13.71
2023-01-01T01:24:32.850Z,13.59
2023-01-01T01:25:32.842Z,13.73
2023-01-01T01:26:32.836Z,13.65
2023-01-01T01:27:32.796Z,13.54
2023-01-01T01:28:32.774Z,13.41
2023-01-01T01:29:32.784Z,13.36
2023-01-01T01:30:32.833Z,13.14
2023-01-01T01:31:32.779Z,13.10
2023-01-01T01:32:32.745Z,12.99
2023-01-01T01:33:32.724Z,12.95
2023-01-01T01:34:32.711Z,12.92
2023-01-01T01:35:32.721Z,12.74
2023-01-01T01:36:32.734Z,12.71
2023-01-01T01:37:32.705Z,12.61
2023-01-01T01:38:32.659Z,12.70
2023-01-01T01:39:32.650Z,12.69
2023-01-01T01:40:32.676Z,12.77
2023-01-01T01:41:32.639Z,12.88
2023-01-01T01:42:32.628Z,12.85
2023-01-01T01:43:32.622Z,12.85
2023-01-01T01:44:32.612Z,12.91
2023-01-01T01:45:33.547Z,12.96
2023-01-01T01:46:32.681Z,13.13
2023-01-01T01:47:32.595Z,13.31
2023-01-01T01:48:32.605Z,13.54
2023-01-01T01:49:32.608Z,13.57
2023-01-01T01:50:32.845Z,13.63
2023-01-01T01:51:32.585Z,13.59
2023-01-01T01:52:32.583Z,13.79
2023-01-01T01:53:32.532Z,13.90
2023-01-01T01:54:32.531Z,13.96
2023-01-01T01:55:32.548Z,14.06
2023-01-01T01:56:32.536Z,13.94
2023-01-01T01:57:32.534Z,13.88
2023-01-01T01:58:32.448Z,13.90
2023-01-01T01:59:32.509Z,13.98
2023-01-01T02:00:32.479Z,13.98
2023-01-01T02:01:32.538Z,13.91
2023-01-01T02:02:32.652Z,13.96
2023-01-01T02:03:32.470Z,14.02
2023-01-01T02:04:32.389Z,14.12
2023-01-01T02:05:32.400Z,14.20
2023-01-01T02:06:32.373Z,14.11
2023-01-01T02:07:32.361Z,14.09
2023-01-01T02:08:32.340Z,14.05
2023-01-01T02:09:32.343Z,14.11
2023-01-01T02:10:32.435Z,13.90
2023-01-01T02:11:32.311Z,13.90
2023-01-01T02:12:32.311Z,13.79
2023-01-01T02:13:32.306Z,13.65
2023-01-01T02:14:32.284Z,13.43
2023-01-01T02:15:32.374Z,13.28
2023-01-01T02:16:32.248Z,13.09
2023-01-01T02:17:37.091Z,12.98
2023-01-01T02:18:33.247Z,12.85
2023-01-01T02:19:32.222Z,12.69
2023-01-01T02:20:32.258Z,12.62
2023-01-01T02:21:32.205Z,12.63
2023-01-01T02:22:32.190Z,12.71
2023-01-01T02:23:32.172Z,12.71
2023-01-01T02:24:32.171Z,12.79
2023-01-01T02:25:32.240Z,12.71
2023-01-01T02:26:32.191Z,12.77
2023-01-01T02:27:32.129Z,12.89
2023-01-01T02:28:32.143Z,12.87
2023-01-01T02:29:32.140Z,12.81
2023-01-01T02:30:32.135Z,12.85
2023-01-01T02:31:32.135Z,12.69
2023-01-01T02:32:32.071Z,12.67
2023-01-01T02:33:32.073Z,12.44
2023-01-01T02:34:32.210Z,12.54
2023-01-01T02:35:32.072Z,12.15
2023-01-01T02:36:32.061Z,11.90
2023-01-01T02:37:32.046Z,11.59
2023-01-01T02:38:32.047Z,11.59
2023-01-01T02:39:32.073Z,11.51
2023-01-01T02:40:32.042Z,11.60
2023-01-01T02:41:31.995Z,11.78
2023-01-01T02:42:32.026Z,12.00
2023-01-01T02:43:31.976Z,12.07
2023-01-01T02:44:31.959Z,11.97
2023-01-01T02:45:31.990Z,12.13
2023-01-01T02:46:31.936Z,12.11
2023-01-01T02:47:32.197Z,12.31
2023-01-01T02:48:32.028Z,12.51
2023-01-01T02:49:31.916Z,12.84
2023-01-01T02:50:31.906Z,12.96
2023-01-01T02:51:31.869Z,12.88
2023-01-01T02:52:31.887Z,12.92
2023-01-01T02:53:31.891Z,12.74
2023-01-01T02:54:32.000Z,12.55
2023-01-01T02:55:31.859Z,12.49
2023-01-01T02:56:31.824Z,12.38
2023-01-01T02:57:31.834Z,12.13
2023-01-01T02:58:31.803Z,12.11
2023-01-01T02:59:31.835Z,11.78
2023-01-01T03:00:31.797Z,11.72
2023-01-01T03:01:31.929Z,11.84
2023-01-01T03:02:31.937Z,11.78
2023-01-01T03:03:31.772Z,11.70
2023-01-01T03:04:31.741Z,11.72
2023-01-01T03:05:31.735Z,11.72
2023-01-01T03:06:31.714Z,11.72
2023-01-01T03:07:31.698Z,11.88
2023-01-01T03:08:31.801Z,11.85
2023-01-01T03:09:31.801Z,11.94
2023-01-01T03:10:31.756Z,12.26
2023-01-01T03:11:31.713Z,12.31
2023-01-01T03:12:31.656Z,12.25
2023-01-01T03:13:31.644Z,12.15
2023-01-01T03:14:31.625Z,12.04
2023-01-01T03:15:31.660Z,12.03
2023-01-01T03:16:31.607Z,11.98
2023-01-01T03:17:31.631Z,11.77
2023-01-01T03:18:31.587Z,11.64
2023-01-01T03:19:31.591Z,11.44
2023-01-01T03:20:31.620Z,11.41
2023-01-01T03:21:31.541Z,11.35
2023-01-01T03:22:31.559Z,11.33
2023-01-01T03:23:31.535Z,11.30
2023-01-01T03:24:31.545Z,11.11
2023-01-01T03:25:31.533Z,10.84
2023-01-01T03:26:31.495Z,10.80
2023-01-01T03:27:31.487Z,10.65
2023-01-01T03:28:31.465Z,10.47
2023-01-01T03:29:31.489Z,10.32
2023-01-01T03:30:31.480Z,10.28
2023-01-01T03:31:31.504Z,10.17
2023-01-01T03:32:31.416Z,10.07
2023-01-01T03:33:31.428Z,9.98
2023-01-01T03:34:31.412Z,10.09
2023-01-01T03:35:31.453Z,10.10
2023-01-01T03:36:31.388Z,10.04
2023-01-01T03:37:31.384Z,10.07
2023-01-01T03:38:31.364Z,10.14
2023-01-01T03:39:31.353Z,10.16
2023-01-01T03:40:31.376Z,10.43
2023-01-01T03:41:31.345Z,10.63
2023-01-01T03:42:31.336Z,10.76
2023-01-01T03:43:31.363Z,10.84
2023-01-01T03:44:31.325Z,10.91
2023-01-01T03:45:31.315Z,10.91
2023-01-01T03:46:31.430Z,10.83
2023-01-01T03:47:31.281Z,10.80
2023-01-01T03:48:31.307Z,10.69
2023-01-01T03:49:31.301Z,10.76
2023-01-01T03:50:31.322Z,10.70
2023-01-01T03:51:31.234Z,10.70
2023-01-01T03:52:31.260Z,10.78
2023-01-01T03:53:31.243Z,10.87
2023-01-01T03:54:31.191Z,10.86
2023-01-01T03:55:31.208Z,10.76
2023-01-01T03:56:31.186Z,10.52
2023-01-01T03:57:31.178Z,10.43
2023-01-01T03:58:31.151Z,10.25
2023-01-01T03:59:31.142Z,10.17
2023-01-01T04:00:31.191Z,9.99
2023-01-01T04:01:31.259Z,10.06
2023-01-01T04:02:31.218Z,10.02
2023-01-01T04:03:31.142Z,10.14
2023-01-01T04:04:31.100Z,9.91
2023-01-01T04:05:31.096Z,9.96
2023-01-01T04:06:31.062Z,10.01
2023-01-01T04:07:31.054Z,9.93
2023-01-01T04:08:31.057Z,9.81
2023-01-01T04:09:31.045Z,9.78
2023-01-01T04:10:31.150Z,9.83
2023-01-01T04:11:31.025Z,9.80
2023-01-01T04:12:31.024Z,9.59
2023-01-01T04:13:31.049Z,9.58
2023-01-01T04:14:31.008Z,9.45
2023-01-01T04:15:31.010Z,9.53
2023-01-01T04:16:30.983Z,9.71
2023-01-01T04:17:31.106Z,9.73
2023-01-01T04:18:30.964Z,9.74
2023-01-01T04:19:30.930Z,9.89
2023-01-01T04:20:30.953Z,9.73
2023-01-01T04:21:30.909Z,9.81
2023-01-01T04:22:30.912Z,9.89
2023-01-01T04:23:30.949Z,9.89
2023-01-01T04:24:30.884Z,9.88
2023-01-01T04:25:30.899Z,9.83
2023-01-01T04:26:30.873Z,9.83
2023-01-01T04:27:30.840Z,9.95
2023-01-01T04:28:30.836Z,9.93
2023-01-01T04:29:30.840Z,10.01
2023-01-01T04:30:30.842Z,10.04
2023-01-01T04:31:30.803Z,10.06
2023-01-01T04:32:30.812Z,10.07
2023-01-01T04:33:30.867Z,10.09
2023-01-01T04:34:30.776Z,10.01
2023-01-01T04:35:30.807Z,9.98
2023-01-01T04:36:30.744Z,9.91
2023-01-01T04:37:30.750Z,10.02
2023-01-01T04:38:30.733Z,10.02
2023-01-01T04:39:30.715Z,10.16
2023-01-01T04:40:30.729Z,9.93
2023-01-01T04:41:30.678Z,9.95
2023-01-01T04:42:30.701Z,9.85
2023-01-01T04:43:30.666Z,9.65
2023-01-01T04:44:30.669Z,9.65
2023-01-01T04:45:30.753Z,9.60
2023-01-01T04:46:30.685Z,9.71
2023-01-01T04:47:30.634Z,9.86
2023-01-01T04:48:30.640Z,9.99
2023-01-01T04:49:30.616Z,10.14
2023-01-01T04:50:30.601Z,10.13
2023-01-01T04:51:30.612Z,10.20
2023-01-01T04:52:30.592Z,10.17
2023-01-01T04:53:30.643Z,10.25
2023-01-01T04:54:30.547Z,10.43
2023-01-01T04:55:30.559Z,10.43
2023-01-01T04:56:30.527Z,10.43
2023-01-01T04:57:30.540Z,10.35
2023-01-01T04:58:30.666Z,10.17
2023-01-01T04:59:30.506Z,10.14
2023-01-01T05:00:30.515Z,10.14
2023-01-01T05:01:30.587Z,10.11
2023-01-01T05:02:30.594Z,10.01
2023-01-01T05:03:30.448Z,9.93
2023-01-01T05:04:30.450Z,9.88
2023-01-01T05:05:30.464Z,9.71
2023-01-01T05:06:30.435Z,9.70
2023-01-01T05:07:30.416Z,9.71
2023-01-01T05:08:30.416Z,9.70
2023-01-01T05:09:30.428Z,9.63
2023-01-01T05:10:30.412Z,9.52
2023-01-01T05:11:30.380Z,9.50
2023-01-01T05:12:30.401Z,9.45
2023-01-01T05:13:30.367Z,9.45
2023-01-01T05:14:30.419Z,9.50
2023-01-01T05:15:30.355Z,9.56
2023-01-01T05:16:30.416Z,9.53
2023-01-01T05:17:30.313Z,9.53
2023-01-01T05:18:30.284Z,9.45
2023-01-01T05:19:30.298Z,9.34
2023-01-01T05:20:30.291Z,9.20
2023-01-01T05:21:30.272Z,9.20
2023-01-01T05:22:30.243Z,9.24
2023-01-01T05:23:30.260Z,9.08
2023-01-01T05:24:30.237Z,9.08
2023-01-01T05:25:30.241Z,9.01
2023-01-01T05:26:30.231Z,9.01
2023-01-01T05:27:30.203Z,8.85
2023-01-01T05:28:30.183Z,8.97
2023-01-01T05:29:30.198Z,8.80
2023-01-01T05:30:30.174Z,8.75
2023-01-01T05:31:30.252Z,8.82
2023-01-01T05:32:30.144Z,8.86
2023-01-01T05:33:30.132Z,8.85
2023-01-01T05:35:00.034Z,8.80
2023-01-01T05:36:00.016Z,8.78
2023-01-01T05:37:00.019Z,8.75
2023-01-01T05:37:59.997Z,8.70
2023-01-01T05:38:59.961Z,8.82
2023-01-01T05:39:59.960Z,8.88
2023-01-01T05:41:00.273Z,8.94
2023-01-01T05:41:59.992Z,9.04
2023-01-01T05:42:59.954Z,9.04
2023-01-01T05:43:59.938Z,9.06
2023-01-01T05:44:59.933Z,9.04
2023-01-01T05:45:59.955Z,8.97
2023-01-01T05:46:59.913Z,8.98
2023-01-01T05:47:59.894Z,8.83
2023-01-01T05:48:59.893Z,8.71
2023-01-01T05:49:59.848Z,8.63
2023-01-01T05:50:59.866Z,8.70
2023-01-01T05:51:59.841Z,8.55
2023-01-01T05:52:59.863Z,8.43
2023-01-01T05:53:59.825Z,8.54
2023-01-01T05:54:59.862Z,8.67
2023-01-01T05:55:59.864Z,8.88
2023-01-01T05:56:59.799Z,8.89
2023-01-01T05:57:59.784Z,8.78
2023-01-01T05:58:59.766Z,8.71
2023-01-01T05:59:59.774Z,8.71
2023-01-01T06:00:59.898Z,8.85
2023-01-01T06:01:59.870Z,8.86
2023-01-01T06:02:59.811Z,8.76
2023-01-01T06:03:59.824Z,8.85
2023-01-01T06:04:59.697Z,9.04
2023-01-01T06:05:59.760Z,9.24
2023-01-01T06:06:59.695Z,9.55
2023-01-01T06:07:59.669Z,9.63
2023-01-01T06:08:59.693Z,9.93
2023-01-01T06:09:59.636Z,9.83
2023-01-01T06:10:59.706Z,9.92
2023-01-01T06:11:59.612Z,10.01
2023-01-01T06:12:59.669Z,10.01
2023-01-01T06:13:59.607Z,10.07
2023-01-01T06:14:59.621Z,10.06
2023-01-01T06:15:59.602Z,10.10
2023-01-01T06:16:59.622Z,9.98
2023-01-01T06:17:59.642Z,9.99
2023-01-01T06:18:59.601Z,9.85
2023-01-01T06:19:59.538Z,9.88
2023-01-01T06:20:59.579Z,9.62
2023-01-01T06:21:59.518Z,9.53
2023-01-01T06:22:59.522Z,9.65
2023-01-01T06:23:59.555Z,9.68
2023-01-01T06:24:59.586Z,9.81
2023-01-01T06:25:59.500Z,9.99
2023-01-01T06:26:59.537Z,10.10
2023-01-01T06:27:59.440Z,10.18
2023-01-01T06:28:59.482Z,10.29
2023-01-01T06:29:59.428Z,10.32
2023-01-01T06:30:59.489Z,10.47
2023-01-01T06:31:59.424Z,10.55
2023-01-01T06:32:59.414Z,10.49
2023-01-01T06:33:59.378Z,10.65
2023-01-01T06:34:59.366Z,10.39
2023-01-01T06:35:59.403Z,10.22
2023-01-01T06:37:06.338Z,9.98
2023-01-01T06:38:00.353Z,9.88
2023-01-01T06:38:59.384Z,9.75
2023-01-01T06:39:59.330Z,9.53
2023-01-01T06:40:59.348Z,9.48
2023-01-01T06:41:59.293Z,9.91
2023-01-01T06:42:59.292Z,10.02
2023-01-01T06:43:59.306Z,9.93
2023-01-01T06:44:59.259Z,9.86
2023-01-01T06:45:59.294Z,9.85
2023-01-01T06:46:59.259Z,9.60
2023-01-01T06:47:59.243Z,9.73
2023-01-01T06:48:59.225Z,9.91
2023-01-01T06:49:59.220Z,9.86
2023-01-01T06:50:59.276Z,9.74
2023-01-01T06:51:59.281Z,9.86
2023-01-01T06:52:59.180Z,10.07
2023-01-01T06:53:59.207Z,10.04
2023-01-01T06:54:59.194Z,10.13
2023-01-01T06:55:59.173Z,9.80
2023-01-01T06:56:59.155Z,9.91
2023-01-01T06:57:59.141Z,10.13
2023-01-01T06:58:59.116Z,10.39
2023-01-01T06:59:59.131Z,10.75
2023-01-01T07:01:04.823Z,10.98
2023-01-01T07:02:00.163Z,11.24
2023-01-01T07:02:59.348Z,11.36
2023-01-01T07:03:59.063Z,11.46
2023-01-01T07:04:59.053Z,11.35
2023-01-01T07:05:59.047Z,11.31
2023-01-01T07:06:59.024Z,11.41
2023-01-01T07:07:59.046Z,11.60
2023-01-01T07:08:59.043Z,11.64
2023-01-01T07:09:58.993Z,11.66
2023-01-01T07:10:59.005Z,11.64
2023-01-01T07:11:58.988Z,11.60
2023-01-01T07:12:58.972Z,11.70
2023-01-01T07:13:58.983Z,11.54
2023-01-01T07:14:58.973Z,11.09
2023-01-01T07:15:58.967Z,10.84
2023-01-01T07:16:58.915Z,10.70
2023-01-01T07:17:58.905Z,10.65
2023-01-01T07:18:58.972Z,10.47
2023-01-01T07:19:58.887Z,10.29
2023-01-01T07:20:58.924Z,10.14
2023-01-01T07:21:58.868Z,10.17
2023-01-01T07:22:58.863Z,10.06
2023-01-01T07:23:58.967Z,10.09
2023-01-01T07:24:58.866Z,10.04
2023-01-01T07:25:59.233Z,10.09
2023-01-01T07:26:58.815Z,10.14
2023-01-01T07:27:58.809Z,10.01
2023-01-01T07:29:06.204Z,9.86
2023-01-01T07:29:59.789Z,9.78
2023-01-01T07:30:58.801Z,9.65
2023-01-01T07:31:58.753Z,9.48
2023-01-01T07:32:58.773Z,9.55
2023-01-01T07:33:58.827Z,9.60
2023-01-01T07:34:58.739Z,9.80
2023-01-01T07:35:58.742Z,10.01
2023-01-01T07:36:58.707Z,10.02
2023-01-01T07:37:58.697Z,10.14
2023-01-01T07:38:58.746Z,10.14
2023-01-01T07:39:58.670Z,10.43
2023-01-01T07:40:58.693Z,10.54
2023-01-01T07:41:58.690Z,10.55
2023-01-01T07:42:58.654Z,10.84
2023-01-01T07:43:58.665Z,10.87
2023-01-01T07:44:58.686Z,10.99
2023-01-01T07:45:58.684Z,11.16
2023-01-01T07:46:58.617Z,11.23
2023-01-01T07:47:58.656Z,11.44
2023-01-01T07:48:58.589Z,11.38
2023-01-01T07:49:58.585Z,11.45
2023-01-01T07:50:58.621Z,11.46
2023-01-01T07:51:58.547Z,11.49
2023-01-01T07:52:58.620Z,11.48
2023-01-01T07:54:05.669Z,11.60
2023-01-01T07:54:59.530Z,11.66
2023-01-01T07:55:58.498Z,11.70
2023-01-01T07:56:58.496Z,11.72
2023-01-01T07:57:58.491Z,11.79
2023-01-01T07:58:58.468Z,11.72
2023-01-01T07:59:58.460Z,11.72
2023-01-01T08:00:58.490Z,11.66
2023-01-01T08:01:58.553Z,11.81
2023-01-01T08:02:58.525Z,11.77
2023-01-01T08:03:58.462Z,11.79
2023-01-01T08:04:58.422Z,11.94
2023-01-01T08:05:58.441Z,12.01
2023-01-01T08:06:58.377Z,12.01
2023-01-01T08:07:58.416Z,12.01
2023-01-01T08:08:58.378Z,12.16
2023-01-01T08:09:58.363Z,12.26
2023-01-01T08:11:03.421Z,12.31
2023-01-01T08:11:59.360Z,12.22
2023-01-01T08:12:58.327Z,12.30
2023-01-01T08:13:58.353Z,12.30
2023-01-01T08:14:58.305Z,12.19
2023-01-01T08:15:58.358Z,12.26
2023-01-01T08:16:58.366Z,12.23
2023-01-01T08:17:58.303Z,12.15
2023-01-01T08:18:58.289Z,12.26
2023-01-01T08:19:58.241Z,12.40
2023-01-01T08:20:58.306Z,12.51
2023-01-01T08:21:58.219Z,12.54
2023-01-01T08:23:04.648Z,12.59
2023-01-01T08:23:59.427Z,12.76
2023-01-01T08:24:58.247Z,12.85
2023-01-01T08:25:58.233Z,12.94
2023-01-01T08:26:58.178Z,13.03
2023-01-01T08:27:58.260Z,13.14
2023-01-01T08:28:58.203Z,13.28
2023-01-01T08:29:58.192Z,13.25
2023-01-01T08:30:58.223Z,13.25
2023-01-01T08:31:58.117Z,13.51
2023-01-01T08:32:58.119Z,13.44
2023-01-01T08:33:58.126Z,13.48
2023-01-01T08:34:58.100Z,13.57
2023-01-01T08:35:58.096Z,13.57
2023-01-01T08:36:58.090Z,13.65
2023-01-01T08:37:58.094Z,13.62
2023-01-01T08:38:58.144Z,13.75
2023-01-01T08:39:58.070Z,13.81
2023-01-01T08:40:58.067Z,13.53
2023-01-01T08:41:58.018Z,13.44
2023-01-01T08:42:58.029Z,13.57
2023-01-01T08:43:57.991Z,13.66
2023-01-01T08:44:58.014Z,13.66
2023-01-01T08:45:58.015Z,13.71
2023-01-01T08:46:57.991Z,13.83
2023-01-01T08:47:57.980Z,13.98
2023-01-01T08:48:57.962Z,13.88
2023-01-01T08:49:57.921Z,14.44
2023-01-01T08:50:57.922Z,14.49
2023-01-01T08:51:57.914Z,14.75
2023-01-01T08:52:57.913Z,14.82
2023-01-01T08:53:57.876Z,14.95
2023-01-01T08:54:58.061Z,15.27
2023-01-01T08:55:57.863Z,15.27
2023-01-01T08:56:57.871Z,15.38
2023-01-01T08:57:57.845Z,15.76
2023-01-01T08:59:03.910Z,15.95
2023-01-01T08:59:58.823Z,16.11
2023-01-01T09:00:57.831Z,16.26
2023-01-01T09:01:57.973Z,16.34
2023-01-01T09:02:57.911Z,16.32
2023-01-01T09:03:57.801Z,16.26
2023-01-01T09:04:57.805Z,16.22
2023-01-01T09:05:57.798Z,16.14
2023-01-01T09:06:57.749Z,16.08
2023-01-01T09:07:57.766Z,16.25
2023-01-01T09:08:57.734Z,16.42
2023-01-01T09:09:57.716Z,16.40
2023-01-01T09:10:57.746Z,16.48
2023-01-01T09:11:57.720Z,16.50
2023-01-01T09:12:57.698Z,16.48
2023-01-01T09:13:57.676Z,16.59
2023-01-01T09:14:57.742Z,16.47
2023-01-01T09:15:57.742Z,16.36
2023-01-01T09:16:57.630Z,16.54
2023-01-01T09:17:57.662Z,16.66
2023-01-01T09:18:57.624Z,16.82
2023-01-01T09:19:57.630Z,16.78
2023-01-01T09:20:57.618Z,16.82
2023-01-01T09:21:57.615Z,16.82
2023-01-01T09:23:02.509Z,17.05
2023-01-01T09:23:58.541Z,17.15
2023-01-01T09:24:57.545Z,17.25
2023-01-01T09:25:57.551Z,17.30
2023-01-01T09:26:57.519Z,17.35
2023-01-01T09:27:57.555Z,17.30
2023-01-01T09:28:57.535Z,17.22
2023-01-01T09:29:57.490Z,17.32
2023-01-01T09:30:57.516Z,17.35
2023-01-01T09:31:57.495Z,17.51
2023-01-01T09:32:57.442Z,17.49
2023-01-01T09:33:57.448Z,17.54
2023-01-01T09:34:57.454Z,17.73
2023-01-01T09:35:57.492Z,18.13
2023-01-01T09:36:57.427Z,18.07
2023-01-01T09:37:57.448Z,18.34
2023-01-01T09:38:57.386Z,18.51
2023-01-01T09:39:57.381Z,18.69
2023-01-01T09:40:57.402Z,18.83
2023-01-01T09:41:57.390Z,18.76
2023-01-01T09:42:57.372Z,18.62
2023-01-01T09:43:57.330Z,18.83
2023-01-01T09:44:57.342Z,18.83
2023-01-01T09:45:57.384Z,18.87
2023-01-01T09:46:57.316Z,18.94
2023-01-01T09:47:57.299Z,18.96
2023-01-01T09:48:57.321Z,18.97
2023-01-01T09:49:57.270Z,19.09
2023-01-01T09:50:57.285Z,19.15
2023-01-01T09:51:58.288Z,18.96
2023-01-01T09:52:57.267Z,19.01
2023-01-01T09:53:57.219Z,19.06
2023-01-01T09:54:57.249Z,18.87
2023-01-01T09:55:57.233Z,18.84
2023-01-01T09:56:57.204Z,18.90
2023-01-01T09:57:57.242Z,18.96
2023-01-01T09:58:57.167Z,19.02
2023-01-01T09:59:57.173Z,18.97
2023-01-01T10:00:57.185Z,19.09
2023-01-01T10:01:57.228Z,19.09
2023-01-01T10:02:57.119Z,19.31
2023-01-01T10:03:57.190Z,19.49
2023-01-01T10:04:57.257Z,19.49
2023-01-01T10:05:57.181Z,19.49
2023-01-01T10:06:57.080Z,19.62
2023-01-01T10:07:57.114Z,19.60
2023-01-01T10:08:57.088Z,19.49
2023-01-01T10:09:57.052Z,19.45
2023-01-01T10:10:57.092Z,19.52
2023-01-01T10:11:57.033Z,19.58
2023-01-01T10:12:57.019Z,19.80
2023-01-01T10:13:57.020Z,19.85
2023-01-01T10:15:00.827Z,19.97
2023-01-01T10:15:57.031Z,20.04
2023-01-01T10:16:57.089Z,20.05
2023-01-01T10:17:57.012Z,20.05
2023-01-01T10:18:56.954Z,20.08
2023-01-01T10:19:56.953Z,20.10
2023-01-01T10:20:56.941Z,20.12
2023-01-01T10:21:56.936Z,20.08
2023-01-01T10:22:56.976Z,20.20
2023-01-01T10:23:56.898Z,20.17
2023-01-01T10:24:56.905Z,20.19
2023-01-01T10:25:56.869Z,20.15
2023-01-01T10:26:56.919Z,20.23
2023-01-01T10:27:59.576Z,20.22
2023-01-01T10:28:56.903Z,20.37
2023-01-01T10:30:03.464Z,20.26
2023-01-01T10:30:57.824Z,20.40
2023-01-01T10:31:56.882Z,20.46
2023-01-01T10:32:56.811Z,20.42
2023-01-01T10:33:56.863Z,20.61
2023-01-01T10:34:56.794Z,20.58
2023-01-01T10:35:56.815Z,20.76
2023-01-01T10:36:56.799Z,20.66
2023-01-01T10:37:56.762Z,20.83
2023-01-01T10:38:56.734Z,20.85
2023-01-01T10:39:56.736Z,20.94
2023-01-01T10:40:56.739Z,21.09
2023-01-01T10:41:56.710Z,21.33
2023-01-01T10:42:56.712Z,21.36
2023-01-01T10:43:56.768Z,21.21
2023-01-01T10:44:56.674Z,21.28
2023-01-01T10:45:56.720Z,21.22
2023-01-01T10:46:56.669Z,21.52
2023-01-01T10:47:56.631Z,21.66
2023-01-01T10:48:56.631Z,21.63
2023-01-01T10:49:56.656Z,21.63
2023-01-01T10:50:56.730Z,21.73
2023-01-01T10:51:56.599Z,21.81
2023-01-01T10:52:56.590Z,21.77
2023-01-01T10:53:56.577Z,21.42
2023-01-01T10:54:56.560Z,21.27
2023-01-01T10:55:56.627Z,21.49
2023-01-01T10:56:56.557Z,21.77
2023-01-01T10:57:56.529Z,22.09
2023-01-01T10:58:56.523Z,21.93
2023-01-01T11:01:27.843Z,21.90
2023-01-01T11:02:27.911Z,21.90
2023-01-01T11:03:27.728Z,21.89
2023-01-01T11:04:27.709Z,21.64
2023-01-01T11:05:27.710Z,21.28
2023-01-01T11:06:27.692Z,21.05
2023-01-01T11:07:27.679Z,21.01
2023-01-01T11:08:27.689Z,21.16
2023-01-01T11:09:27.666Z,21.26
2023-01-01T11:10:27.693Z,21.33
2023-01-01T11:11:27.661Z,21.34
2023-01-01T11:13:03.020Z,21.52
2023-01-01T11:13:28.629Z,21.53
2023-01-01T11:14:27.611Z,21.64
2023-01-01T11:15:27.614Z,21.79
2023-01-01T11:16:27.719Z,21.73
2023-01-01T11:17:27.599Z,21.77
2023-01-01T11:18:27.581Z,21.77
2023-01-01T11:19:27.573Z,21.61
2023-01-01T11:20:27.594Z,21.66
2023-01-01T11:21:27.563Z,21.67
2023-01-01T11:22:27.531Z,21.71
2023-01-01T11:23:27.526Z,21.67
2023-01-01T11:24:27.576Z,21.61
2023-01-01T11:25:27.523Z,21.61
2023-01-01T11:26:27.530Z,21.51
2023-01-01T11:27:27.663Z,21.33
2023-01-01T11:28:27.523Z,21.36
2023-01-01T11:29:27.460Z,21.24
2023-01-01T11:30:27.556Z,21.24
2023-01-01T11:31:27.582Z,21.21
2023-01-01T11:32:27.480Z,21.26
2023-01-01T11:33:27.410Z,21.12
2023-01-01T11:34:27.402Z,21.19
2023-01-01T11:35:27.423Z,21.18
2023-01-01T11:36:27.473Z,21.12
2023-01-01T11:37:27.397Z,21.27
2023-01-01T11:38:30.255Z,21.27
2023-01-01T11:39:27.417Z,21.22
2023-01-01T11:40:27.391Z,21.15
2023-01-01T11:41:27.351Z,21.18
2023-01-01T11:42:27.328Z,21.26
2023-01-01T11:43:27.325Z,21.37
2023-01-01T11:44:27.496Z,21.52
2023-01-01T11:45:27.340Z,21.34
2023-01-01T11:46:27.320Z,21.37
2023-01-01T11:47:27.267Z,21.38
2023-01-01T11:48:27.267Z,21.08
2023-01-01T11:49:27.227Z,21.03
2023-01-01T11:50:27.285Z,21.06
2023-01-01T11:51:27.292Z,21.05
2023-01-01T11:52:27.260Z,21.03
2023-01-01T11:53:27.184Z,20.91
2023-01-01T11:54:27.195Z,20.90
2023-01-01T11:55:27.185Z,20.97
2023-01-01T11:56:27.264Z,20.94
2023-01-01T11:57:27.210Z,21.08
2023-01-01T11:58:27.143Z,21.08
2023-01-01T11:59:27.122Z,21.12
2023-01-01T12:00:27.240Z,21.16
2023-01-01T12:01:27.175Z,21.13
2023-01-01T12:02:27.137Z,21.18
2023-01-01T12:03:33.077Z,21.18
2023-01-01T12:04:28.086Z,21.30
2023-01-01T12:05:27.218Z,21.19
2023-01-01T12:06:27.072Z,21.34
2023-01-01T12:07:27.067Z,21.53
2023-01-01T12:08:27.049Z,21.59
2023-01-01T12:09:27.053Z,21.75
2023-01-01T12:10:27.208Z,21.93
2023-01-01T12:11:27.031Z,21.79
2023-01-01T12:12:26.987Z,21.58
2023-01-01T12:13:26.974Z,21.12
2023-01-01T12:14:32.363Z,21.00
2023-01-01T12:15:28.072Z,20.66
2023-01-01T12:16:27.014Z,20.97
2023-01-01T12:17:26.934Z,20.85
2023-01-01T12:18:26.945Z,20.73
2023-01-01T12:19:26.898Z,20.54
2023-01-01T12:20:27.070Z,20.34
2023-01-01T12:21:26.961Z,20.48
2023-01-01T12:22:26.891Z,20.58
2023-01-01T12:23:26.899Z,20.63
2023-01-01T12:24:26.927Z,20.76
2023-01-01T12:25:26.863Z,20.98
2023-01-01T12:26:26.875Z,21.06
2023-01-01T12:27:26.991Z,20.98
2023-01-01T12:28:26.843Z,21.21
2023-01-01T12:29:26.825Z,21.34
2023-01-01T12:30:26.879Z,21.37
2023-01-01T12:31:26.828Z,21.64
2023-01-01T12:32:26.790Z,21.61
2023-01-01T12:33:26.767Z,21.52
2023-01-01T12:34:26.752Z,21.37
2023-01-01T12:35:26.800Z,21.38
2023-01-01T12:36:26.748Z,21.26
2023-01-01T12:37:26.812Z,21.22
2023-01-01T12:38:26.738Z,21.24
2023-01-01T12:39:26.693Z,21.22
2023-01-01T12:40:27.050Z,21.19
2023-01-01T12:41:26.688Z,21.19
2023-01-01T12:42:26.675Z,21.46
2023-01-01T12:43:26.671Z,21.42
2023-01-01T12:44:26.648Z,21.36
2023-01-01T12:45:30.959Z,21.24
2023-01-01T12:46:26.680Z,21.06
2023-01-01T12:47:26.802Z,21.01
2023-01-01T12:48:26.646Z,20.76
2023-01-01T12:49:26.638Z,20.66
2023-01-01T12:50:26.591Z,20.60
2023-01-01T12:51:26.594Z,20.57
2023-01-01T12:52:26.627Z,20.48
2023-01-01T12:53:26.549Z,20.51
2023-01-01T12:54:26.538Z,20.25
2023-01-01T12:55:26.795Z,20.26
2023-01-01T12:56:26.507Z,20.17
2023-01-01T12:57:26.542Z,20.26
2023-01-01T12:58:26.510Z,20.26
2023-01-01T12:59:26.605Z,20.23
2023-01-01T13:00:26.534Z,20.23